Time;durP1;ratioP1;P1;durP2;ratioP2;P2;SDS_P1;SDS_P2;PMS_P1;PMS_P2;Temp;Humidity;BMP_temperature;BMP_pressure;BME280_temperature;BME280_humidity;BME280_pressure;Samples;Min_cycle;Max_cycle;Signal;HPM_P1;HPM_P2
2023/05/21 00:00:11;;;;;;;2.67;1.70;;;;;;;;;;5006212;28;20026;-78
2023/05/21 00:02:37;;;;;;;3.00;1.98;;;;;;;;;;5006611;28;20025;-77
2023/05/21 00:05:04;;;;;;;2.72;1.77;;;;;;;;;;5005497;28;20041;-79
2023/05/21 00:07:32;;;;;;;3.58;2.13;;;;;;;;;;4998680;28;20045;-78
2023/05/21 00:09:59;;;;;;;3.63;2.00;;;;;;;;;;5015910;28;20507;-78
2023/05/21 00:12:25;;;;;;;3.53;2.22;;;;;;;;;;5011406;28;20040;-78
2023/05/21 00:14:51;;;;;;;2.95;1.98;;;;;;;;;;4998807;28;20589;-78
2023/05/21 00:17:17;;;;;;;3.47;2.13;;;;;;;;;;4999330;28;20036;-78
2023/05/21 00:19:43;;;;;;;3.72;2.20;;;;;;;;;;5020017;28;20117;-78
2023/05/21 00:22:09;;;;;;;2.75;2.00;;;;;;;;;;5006911;28;20037;-78
2023/05/21 00:24:38;;;;;;;2.70;2.15;;;;;;;;;;5000054;28;20037;-78
2023/05/21 00:27:04;;;;;;;3.15;2.22;;;;;;;;;;5006913;28;20034;-78
2023/05/21 00:29:30;;;;;;;2.80;1.90;;;;;;;;;;5016558;28;20121;-78
2023/05/21 00:31:56;;;;;;;3.55;2.05;;;;;;;;;;5012164;28;20558;-78
2023/05/21 00:34:22;;;;;;;3.13;1.98;;;;;;;;;;5004292;28;20030;-78
2023/05/21 00:36:48;;;;;;;4.80;1.90;;;;;;;;;;4999059;28;20025;-78
2023/05/21 00:39:14;;;;;;;5.55;1.80;;;;;;;;;;5019117;28;20013;-77
2023/05/21 00:41:41;;;;;;;3.67;2.15;;;;;;;;;;5005745;28;20048;-78
2023/05/21 00:44:08;;;;;;;2.22;1.92;;;;;;;;;;5018404;28;20160;-79
2023/05/21 00:46:34;;;;;;;4.85;2.45;;;;;;;;;;5014088;28;20484;-76
2023/05/21 00:49:00;;;;;;;1.88;1.70;;;;;;;;;;5013549;28;20648;-80
2023/05/21 00:51:29;;;;;;;5.05;2.20;;;;;;;;;;5015229;28;20033;-79
2023/05/21 00:53:55;;;;;;;3.95;2.05;;;;;;;;;;5007202;28;20045;-80
2023/05/21 00:56:22;;;;;;;3.58;2.30;;;;;;;;;;5020290;28;20396;-80
2023/05/21 00:58:50;;;;;;;3.10;2.28;;;;;;;;;;5017228;28;20128;-80
2023/05/21 01:01:17;;;;;;;3.22;2.22;;;;;;;;;;5019629;28;20057;-80
2023/05/21 01:03:43;;;;;;;3.25;2.00;;;;;;;;;;5019590;28;20533;-80
2023/05/21 01:06:10;;;;;;;2.15;1.63;;;;;;;;;;5016562;28;20041;-79
2023/05/21 01:08:36;;;;;;;2.45;1.80;;;;;;;;;;5017643;28;20041;-79
2023/05/21 01:11:03;;;;;;;3.25;1.88;;;;;;;;;;5020715;28;20029;-80
2023/05/21 01:13:29;;;;;;;2.28;1.52;;;;;;;;;;5022746;28;20018;-80
2023/05/21 01:15:57;;;;;;;3.33;2.25;;;;;;;;;;5022334;28;20044;-79
2023/05/21 01:18:23;;;;;;;4.57;2.00;;;;;;;;;;5020421;28;20029;-80
2023/05/21 01:20:50;;;;;;;2.85;1.90;;;;;;;;;;5020852;28;20041;-80
2023/05/21 01:23:16;;;;;;;3.53;2.30;;;;;;;;;;5016721;28;20108;-78
2023/05/21 01:25:43;;;;;;;2.13;1.95;;;;;;;;;;5022663;28;20045;-78
2023/05/21 01:28:09;;;;;;;4.10;2.15;;;;;;;;;;5023790;28;20013;-78
2023/05/21 01:30:35;;;;;;;3.55;2.05;;;;;;;;;;5022600;28;20063;-79
2023/05/21 01:33:04;;;;;;;5.97;3.10;;;;;;;;;;5020138;28;20029;-78
2023/05/21 01:35:33;;;;;;;3.47;2.35;;;;;;;;;;5022384;28;20120;-78
2023/05/21 01:38:04;;;;;;;3.05;1.95;;;;;;;;;;5025290;28;20029;-78
2023/05/21 01:40:30;;;;;;;;;;;;;;;;;;5022778;28;20037;-78
2023/05/21 01:42:56;;;;;;;3.38;2.30;;;;;;;;;;5017523;28;19950;-78
2023/05/21 01:45:23;;;;;;;3.03;2.22;;;;;;;;;;5018861;28;20391;-78
2023/05/21 01:47:51;;;;;;;2.60;2.20;;;;;;;;;;5020843;28;20980;-78
2023/05/21 01:50:18;;;;;;;2.42;1.92;;;;;;;;;;5016293;28;20125;-78
2023/05/21 01:52:51;;;;;;;3.80;2.10;;;;;;;;;;5025314;28;20365;-77
2023/05/21 01:55:18;;;;;;;3.05;1.75;;;;;;;;;;5019998;28;20041;-79
2023/05/21 01:57:44;;;;;;;2.60;2.10;;;;;;;;;;5018868;28;20010;-78
2023/05/21 02:00:11;;;;;;;2.97;2.03;;;;;;;;;;5019798;28;20127;-79
2023/05/21 02:02:37;;;;;;;3.42;2.30;;;;;;;;;;5024702;28;20033;-78
2023/05/21 02:05:03;;;;;;;3.42;2.03;;;;;;;;;;5022459;28;20042;-79
2023/05/21 02:07:31;;;;;;;2.85;2.20;;;;;;;;;;5029212;28;20033;-79
2023/05/21 02:09:57;;;;;;;2.50;1.88;;;;;;;;;;5029750;28;20112;-79
2023/05/21 02:12:23;;;;;;;3.25;1.95;;;;;;;;;;5028431;28;20152;-80
2023/05/21 02:14:49;;;;;;;2.42;2.10;;;;;;;;;;5020782;28;20029;-80
2023/05/21 02:17:16;;;;;;;3.55;2.28;;;;;;;;;;5019725;28;20087;-79
2023/05/21 02:19:43;;;;;;;4.85;2.30;;;;;;;;;;5021006;28;20499;-78
2023/05/21 02:22:10;;;;;;;2.72;2.13;;;;;;;;;;5023427;28;21157;-79
2023/05/21 02:24:36;;;;;;;3.13;1.88;;;;;;;;;;5019190;28;20025;-79
2023/05/21 02:27:02;;;;;;;2.78;1.98;;;;;;;;;;5017455;28;20506;-79
2023/05/21 02:29:28;;;;;;;4.15;2.20;;;;;;;;;;5020832;28;20038;-79
2023/05/21 02:31:54;;;;;;;2.88;2.25;;;;;;;;;;5002817;28;20033;-79
2023/05/21 02:34:20;;;;;;;3.22;2.03;;;;;;;;;;5020811;28;20052;-79
2023/05/21 02:36:53;;;;;;;6.25;3.03;;;;;;;;;;5018034;28;20419;-80
2023/05/21 02:39:19;;;;;;;3.03;2.40;;;;;;;;;;5017843;28;20026;-79
2023/05/21 02:41:46;;;;;;;3.40;2.10;;;;;;;;;;5022305;28;20030;-79
2023/05/21 02:44:12;;;;;;;3.03;2.30;;;;;;;;;;5021950;28;20033;-79
2023/05/21 02:46:38;;;;;;;3.22;2.33;;;;;;;;;;5001598;28;20562;-79
2023/05/21 02:49:04;;;;;;;2.63;2.10;;;;;;;;;;5020847;28;20025;-79
2023/05/21 02:51:31;;;;;;;3.42;2.35;;;;;;;;;;5019654;28;20033;-79
2023/05/21 02:53:57;;;;;;;2.92;2.08;;;;;;;;;;5017656;28;20028;-79
2023/05/21 02:56:23;;;;;;;2.60;1.92;;;;;;;;;;5020072;28;20121;-79
2023/05/21 02:58:50;;;;;;;2.80;2.17;;;;;;;;;;5017213;28;20038;-79
2023/05/21 03:01:16;;;;;;;4.22;2.22;;;;;;;;;;5015363;28;20022;-78
2023/05/21 03:03:42;;;;;;;3.05;2.03;;;;;;;;;;5018639;28;20526;-79
2023/05/21 03:06:09;;;;;;;3.55;2.22;;;;;;;;;;5018234;28;20045;-79
2023/05/21 03:08:36;;;;;;;4.20;2.33;;;;;;;;;;5016748;28;20032;-79
2023/05/21 03:11:02;;;;;;;3.55;2.38;;;;;;;;;;5017469;28;20033;-79
2023/05/21 03:13:28;;;;;;;3.38;2.20;;;;;;;;;;5021702;28;20645;-80
2023/05/21 03:15:55;;;;;;;4.57;2.13;;;;;;;;;;5018614;28;20108;-79
2023/05/21 03:18:21;;;;;;;3.25;2.13;;;;;;;;;;5018487;28;20598;-79
2023/05/21 03:20:47;;;;;;;2.97;2.00;;;;;;;;;;5017775;28;20051;-79
2023/05/21 03:23:14;;;;;;;4.43;2.00;;;;;;;;;;5020723;28;20671;-78
2023/05/21 03:25:41;;;;;;;3.65;2.50;;;;;;;;;;5019689;28;20103;-79
2023/05/21 03:28:08;;;;;;;4.07;1.98;;;;;;;;;;5021760;28;20082;-79
2023/05/21 03:30:35;;;;;;;3.22;2.28;;;;;;;;;;5019428;28;20022;-79
2023/05/21 03:33:02;;;;;;;4.90;2.10;;;;;;;;;;5020477;28;20037;-79
2023/05/21 03:35:28;;;;;;;4.95;2.17;;;;;;;;;;5023408;28;20013;-79
2023/05/21 03:37:54;;;;;;;4.70;2.40;;;;;;;;;;5020395;28;20017;-78
2023/05/21 03:40:20;;;;;;;4.85;2.40;;;;;;;;;;5017130;28;20420;-78
2023/05/21 03:42:47;;;;;;;2.95;1.98;;;;;;;;;;5013354;28;20383;-77
2023/05/21 03:45:12;;;;;;;2.85;2.00;;;;;;;;;;5020753;28;20030;-79
2023/05/21 03:47:40;;;;;;;2.53;2.03;;;;;;;;;;5019213;28;20042;-78
2023/05/21 03:50:08;;;;;;;3.13;1.80;;;;;;;;;;5021589;28;20068;-78
2023/05/21 03:52:34;;;;;;;4.40;2.13;;;;;;;;;;5016869;28;20044;-79
2023/05/21 03:55:00;;;;;;;4.43;2.30;;;;;;;;;;5018388;28;20420;-78
2023/05/21 03:57:25;;;;;;;2.97;2.47;;;;;;;;;;5019665;28;20460;-79
2023/05/21 03:59:51;;;;;;;4.13;2.50;;;;;;;;;;5020280;28;20041;-79
2023/05/21 04:02:17;;;;;;;3.15;2.25;;;;;;;;;;5020145;28;20037;-78
2023/05/21 04:04:44;;;;;;;3.65;2.40;;;;;;;;;;5019538;28;20072;-79
2023/05/21 04:07:13;;;;;;;2.97;2.13;;;;;;;;;;5019508;28;20037;-79
2023/05/21 04:09:39;;;;;;;3.67;2.15;;;;;;;;;;5020258;28;20021;-79
2023/05/21 04:12:06;;;;;;;5.82;2.95;;;;;;;;;;5018719;28;20018;-79
2023/05/21 04:14:33;;;;;;;3.10;2.28;;;;;;;;;;5020107;28;20022;-79
2023/05/21 04:16:59;;;;;;;3.92;2.60;;;;;;;;;;4999331;28;20083;-79
2023/05/21 04:19:25;;;;;;;3.60;2.33;;;;;;;;;;5021738;28;20476;-79
2023/05/21 04:21:50;;;;;;;3.28;2.25;;;;;;;;;;5018124;28;20017;-79
2023/05/21 04:24:17;;;;;;;3.35;2.15;;;;;;;;;;5017776;28;20409;-78
2023/05/21 04:26:43;;;;;;;3.72;2.30;;;;;;;;;;5016111;28;20187;-79
2023/05/21 04:29:09;;;;;;;2.97;2.05;;;;;;;;;;5018828;28;20117;-79
2023/05/21 04:31:35;;;;;;;3.20;2.50;;;;;;;;;;5016927;28;20021;-79
2023/05/21 04:34:01;;;;;;;5.00;2.63;;;;;;;;;;5018111;28;20079;-79
2023/05/21 04:36:28;;;;;;;2.65;2.13;;;;;;;;;;5021374;28;20692;-78
2023/05/21 04:38:54;;;;;;;3.20;2.35;;;;;;;;;;5018711;28;20026;-79
2023/05/21 04:41:21;;;;;;;4.00;2.40;;;;;;;;;;5020397;28;20214;-80
2023/05/21 04:43:46;;;;;;;2.65;2.10;;;;;;;;;;5024646;28;20036;-79
2023/05/21 04:46:13;;;;;;;4.53;2.30;;;;;;;;;;5020970;28;20037;-79
2023/05/21 04:48:39;;;;;;;2.72;2.42;;;;;;;;;;5023397;28;20040;-79
2023/05/21 04:51:05;;;;;;;4.32;2.53;;;;;;;;;;5036915;28;20021;-79
2023/05/21 04:53:32;;;;;;;3.28;2.22;;;;;;;;;;5023699;28;20029;-79
2023/05/21 04:55:58;;;;;;;2.80;2.13;;;;;;;;;;5019798;28;20098;-79
2023/05/21 04:58:25;;;;;;;2.95;2.33;;;;;;;;;;5015859;28;20120;-79
2023/05/21 05:00:52;;;;;;;3.50;2.50;;;;;;;;;;5022013;28;20444;-79
2023/05/21 05:03:18;;;;;;;3.38;2.20;;;;;;;;;;5015033;28;20104;-79
2023/05/21 05:05:44;;;;;;;3.88;2.35;;;;;;;;;;5022084;28;20049;-79
2023/05/21 05:08:11;;;;;;;3.60;2.33;;;;;;;;;;5022478;28;20021;-79
2023/05/21 05:10:37;;;;;;;3.90;2.40;;;;;;;;;;5019643;28;20041;-79
2023/05/21 05:13:03;;;;;;;3.13;2.25;;;;;;;;;;5021405;28;20095;-80
2023/05/21 05:15:29;;;;;;;3.80;2.38;;;;;;;;;;5022929;28;20029;-80
2023/05/21 05:17:55;;;;;;;2.92;2.13;;;;;;;;;;5020616;28;20107;-79
2023/05/21 05:20:21;;;;;;;2.85;2.00;;;;;;;;;;5018558;28;20068;-79
2023/05/21 05:22:47;;;;;;;3.83;2.47;;;;;;;;;;5023532;28;20048;-80
2023/05/21 05:25:13;;;;;;;5.05;2.15;;;;;;;;;;5019874;28;20044;-79
2023/05/21 05:27:39;;;;;;;2.92;2.15;;;;;;;;;;5006764;28;20025;-80
2023/05/21 05:30:05;;;;;;;2.83;2.15;;;;;;;;;;5022279;28;20037;-79
2023/05/21 05:32:31;;;;;;;3.53;2.15;;;;;;;;;;5020439;28;20031;-80
2023/05/21 05:34:57;;;;;;;5.38;3.03;;;;;;;;;;5020147;28;20021;-79
2023/05/21 05:37:23;;;;;;;3.47;2.22;;;;;;;;;;5014123;28;20026;-79
2023/05/21 05:39:49;;;;;;;2.33;2.03;;;;;;;;;;5018510;28;20029;-79
2023/05/21 05:42:15;;;;;;;4.70;2.50;;;;;;;;;;5023129;28;20089;-80
2023/05/21 05:44:41;;;;;;;3.28;2.28;;;;;;;;;;5000319;28;20057;-79
2023/05/21 05:47:09;;;;;;;3.03;2.10;;;;;;;;;;5019424;28;20420;-79
2023/05/21 05:49:35;;;;;;;2.83;2.03;;;;;;;;;;5025902;28;20052;-79
2023/05/21 05:52:01;;;;;;;3.83;2.25;;;;;;;;;;4998539;28;20021;-80
2023/05/21 05:54:27;;;;;;;3.05;2.20;;;;;;;;;;5022171;28;20946;-80
2023/05/21 05:56:53;;;;;;;3.28;2.10;;;;;;;;;;5022360;28;20026;-80
2023/05/21 05:59:19;;;;;;;3.63;2.63;;;;;;;;;;5021089;28;20469;-79
2023/05/21 06:01:45;;;;;;;4.40;2.20;;;;;;;;;;5023153;28;20021;-79
2023/05/21 06:04:11;;;;;;;5.22;2.50;;;;;;;;;;5021089;28;20530;-80
2023/05/21 06:06:38;;;;;;;4.22;2.50;;;;;;;;;;5012296;28;20156;-78
2023/05/21 06:09:04;;;;;;;3.10;2.63;;;;;;;;;;5019920;28;20041;-78
2023/05/21 06:11:30;;;;;;;5.03;2.67;;;;;;;;;;5022644;28;20033;-79
2023/05/21 06:13:56;;;;;;;3.80;2.20;;;;;;;;;;5020432;28;20025;-77
2023/05/21 06:16:22;;;;;;;3.13;2.10;;;;;;;;;;5015610;28;20128;-78
2023/05/21 06:18:48;;;;;;;3.03;2.13;;;;;;;;;;5021303;28;20822;-78
2023/05/21 06:21:14;;;;;;;4.93;2.70;;;;;;;;;;5019106;28;20032;-78
2023/05/21 06:23:40;;;;;;;3.95;2.42;;;;;;;;;;5023504;28;20029;-77
2023/05/21 06:26:06;;;;;;;3.13;2.30;;;;;;;;;;5021082;28;20032;-77
2023/05/21 06:28:32;;;;;;;3.88;2.60;;;;;;;;;;5021964;28;20120;-77
2023/05/21 06:30:58;;;;;;;2.63;2.30;;;;;;;;;;5022502;28;20087;-79
2023/05/21 06:33:26;;;;;;;2.55;2.17;;;;;;;;;;5021372;28;20021;-77
2023/05/21 06:35:52;;;;;;;4.63;1.98;;;;;;;;;;5018447;28;20075;-77
2023/05/21 06:38:17;;;;;;;6.95;2.45;;;;;;;;;;5023794;28;20021;-77
2023/05/21 06:40:46;;;;;;;5.32;2.65;;;;;;;;;;5022135;28;20032;-77
2023/05/21 06:43:12;;;;;;;3.67;2.53;;;;;;;;;;5021504;28;20094;-78
2023/05/21 06:45:38;;;;;;;3.15;2.20;;;;;;;;;;5023938;28;20128;-77
2023/05/21 06:48:04;;;;;;;2.80;2.03;;;;;;;;;;5022944;28;20025;-78
2023/05/21 06:50:30;;;;;;;3.60;2.17;;;;;;;;;;5021964;28;20034;-78
2023/05/21 06:52:56;;;;;;;3.10;2.28;;;;;;;;;;5016770;28;20025;-79
2023/05/21 06:55:22;;;;;;;3.97;2.50;;;;;;;;;;5016314;28;20029;-80
2023/05/21 06:57:48;;;;;;;2.50;2.00;;;;;;;;;;5018128;28;20560;-80
2023/05/21 07:00:14;;;;;;;3.25;2.13;;;;;;;;;;5016863;28;20026;-79
2023/05/21 07:02:40;;;;;;;7.47;2.78;;;;;;;;;;5016500;28;20546;-80
2023/05/21 07:05:06;;;;;;;5.70;2.30;;;;;;;;;;5018138;28;20103;-79
2023/05/21 07:07:33;;;;;;;2.10;1.77;;;;;;;;;;5018205;28;21522;-80
2023/05/21 07:09:59;;;;;;;3.50;2.40;;;;;;;;;;5028102;28;20112;-78
2023/05/21 07:12:25;;;;;;;3.53;2.60;;;;;;;;;;5015427;28;20377;-80
2023/05/21 07:14:51;;;;;;;3.55;2.42;;;;;;;;;;5023912;28;20025;-79
2023/05/21 07:17:17;;;;;;;3.72;2.58;;;;;;;;;;5016649;28;20075;-80
2023/05/21 07:19:43;;;;;;;6.10;2.20;;;;;;;;;;5016789;28;21476;-76
2023/05/21 07:22:11;;;;;;;3.80;2.60;;;;;;;;;;5018197;28;20057;-77
2023/05/21 07:24:37;;;;;;;3.05;2.35;;;;;;;;;;5013453;28;20033;-80
2023/05/21 07:27:03;;;;;;;3.40;2.20;;;;;;;;;;5019982;28;20040;-80
2023/05/21 07:29:29;;;;;;;3.10;2.20;;;;;;;;;;5021217;28;20052;-86
2023/05/21 07:31:55;;;;;;;4.40;2.63;;;;;;;;;;5021780;28;20028;-86
2023/05/21 07:34:21;;;;;;;2.65;1.88;;;;;;;;;;5019222;28;20030;-81
2023/05/21 07:36:47;;;;;;;4.75;2.70;;;;;;;;;;5016952;28;20024;-82
2023/05/21 07:39:14;;;;;;;3.63;2.60;;;;;;;;;;5016170;28;20051;-79
2023/05/21 07:41:40;;;;;;;6.72;3.25;;;;;;;;;;5016150;28;20021;-87
2023/05/21 07:44:06;;;;;;;3.25;2.28;;;;;;;;;;5018996;28;20036;-81
2023/05/21 07:46:32;;;;;;;4.72;2.60;;;;;;;;;;4997928;28;20514;-77
2023/05/21 07:48:58;;;;;;;4.10;2.45;;;;;;;;;;5011298;28;20018;-80
2023/05/21 07:51:24;;;;;;;6.38;2.45;;;;;;;;;;5017944;28;20155;-75
2023/05/21 07:53:50;;;;;;;2.88;1.90;;;;;;;;;;5015076;28;20108;-72
2023/05/21 07:56:16;;;;;;;3.13;2.38;;;;;;;;;;5005168;28;20017;-74
2023/05/21 07:58:44;;;;;;;4.13;2.30;;;;;;;;;;5008826;28;20532;-75
2023/05/21 08:01:10;;;;;;;3.55;2.60;;;;;;;;;;5016774;28;20374;-76
2023/05/21 08:03:37;;;;;;;5.63;2.30;;;;;;;;;;5018890;28;20116;-73
2023/05/21 08:06:03;;;;;;;2.85;2.20;;;;;;;;;;5011457;28;20524;-75
2023/05/21 08:08:29;;;;;;;3.10;2.28;;;;;;;;;;5013205;28;20120;-81
2023/05/21 08:10:57;;;;;;;7.25;3.05;;;;;;;;;;5014441;28;20566;-75
2023/05/21 08:13:23;;;;;;;4.20;2.65;;;;;;;;;;5013799;28;20126;-76
2023/05/21 08:15:49;;;;;;;4.95;2.50;;;;;;;;;;5017806;28;20029;-84
2023/05/21 08:18:16;;;;;;;3.83;2.30;;;;;;;;;;4988336;28;20022;-83
2023/05/21 08:20:43;;;;;;;7.60;2.88;;;;;;;;;;5022057;28;20013;-83
2023/05/21 08:23:09;;;;;;;5.88;2.80;;;;;;;;;;5018282;28;20120;-85
2023/05/21 08:25:35;;;;;;;6.15;2.85;;;;;;;;;;5020323;28;20022;-83
2023/05/21 08:28:01;;;;;;;4.28;2.30;;;;;;;;;;5003373;28;20030;-84
2023/05/21 08:30:27;;;;;;;4.88;2.83;;;;;;;;;;5020666;28;20384;-84
2023/05/21 08:32:53;;;;;;;6.45;3.10;;;;;;;;;;5023799;28;20387;-84
2023/05/21 08:35:19;;;;;;;4.78;2.67;;;;;;;;;;5024144;28;20025;-84
2023/05/21 08:37:45;;;;;;;3.38;2.45;;;;;;;;;;5014536;28;20152;-85
2023/05/21 08:40:12;;;;;;;3.15;2.38;;;;;;;;;;5019632;28;20045;-84
2023/05/21 08:42:45;;;;;;;5.70;2.25;;;;;;;;;;4999276;28;20067;-85
2023/05/21 08:45:12;;;;;;;3.67;2.40;;;;;;;;;;5019137;28;20198;-84
2023/05/21 08:47:40;;;;;;;6.65;2.63;;;;;;;;;;5023952;28;20029;-83
2023/05/21 08:50:19;;;;;;;5.28;2.58;;;;;;;;;;5020140;28;20038;-83
2023/05/21 08:52:45;;;;;;;3.58;2.85;;;;;;;;;;5020167;28;20112;-83
2023/05/21 08:55:11;;;;;;;4.25;2.55;;;;;;;;;;5020653;28;20033;-83
2023/05/21 08:57:40;;;;;;;3.33;2.33;;;;;;;;;;5023880;28;20034;-84
2023/05/21 09:00:06;;;;;;;6.43;2.35;;;;;;;;;;5017351;28;20037;-83
2023/05/21 09:02:33;;;;;;;4.65;2.88;;;;;;;;;;5018400;28;20014;-85
2023/05/21 09:05:02;;;;;;;3.35;2.42;;;;;;;;;;5018918;28;20037;-83
2023/05/21 09:07:29;;;;;;;3.22;2.25;;;;;;;;;;5022107;28;20029;-84
2023/05/21 09:10:02;;;;;;;3.03;2.20;;;;;;;;;;5022478;28;20033;-84
2023/05/21 09:12:29;;;;;;;5.30;2.88;;;;;;;;;;5020275;28;20018;-84
2023/05/21 09:14:57;;;;;;;4.72;2.90;;;;;;;;;;5018583;28;20032;-84
2023/05/21 09:17:23;;;;;;;3.97;2.55;;;;;;;;;;5018646;28;20029;-84
2023/05/21 09:20:11;;;;;;;5.72;3.10;;;;;;;;;;5016655;28;20032;-83
2023/05/21 09:22:41;;;;;;;7.03;2.85;;;;;;;;;;5015193;28;20134;-84
2023/05/21 09:25:07;;;;;;;7.60;2.77;;;;;;;;;;5023505;28;20246;-83
2023/05/21 09:27:34;;;;;;;5.63;2.90;;;;;;;;;;5022979;28;20033;-84
2023/05/21 09:30:01;;;;;;;3.72;2.42;;;;;;;;;;5022401;28;20029;-83
2023/05/21 09:32:27;;;;;;;4.78;3.08;;;;;;;;;;5026985;28;20088;-84
2023/05/21 09:34:52;;;;;;;4.07;2.83;;;;;;;;;;5007999;28;20013;-84
2023/05/21 09:37:19;;;;;;;3.65;2.65;;;;;;;;;;5040305;28;20017;-84
2023/05/21 09:39:46;;;;;;;4.82;2.80;;;;;;;;;;5012532;28;20120;-84
2023/05/21 09:42:13;;;;;;;4.55;2.92;;;;;;;;;;5030435;28;20029;-84
2023/05/21 09:44:40;;;;;;;3.78;2.40;;;;;;;;;;5023430;28;20029;-83
2023/05/21 09:47:08;;;;;;;5.82;3.05;;;;;;;;;;5024212;28;20029;-84
2023/05/21 09:49:36;;;;;;;3.53;2.47;;;;;;;;;;5025609;28;20056;-85
2023/05/21 09:52:02;;;;;;;3.97;2.70;;;;;;;;;;5023451;28;20035;-83
2023/05/21 09:54:32;;;;;;;3.13;2.20;;;;;;;;;;5003921;28;20018;-83
2023/05/21 09:57:00;;;;;;;3.67;2.67;;;;;;;;;;5021735;28;20018;-83
2023/05/21 09:59:35;;;;;;;4.47;2.13;;;;;;;;;;5016317;28;20108;-82
2023/05/21 10:02:01;;;;;;;4.50;2.55;;;;;;;;;;5024804;28;20068;-83
2023/05/21 10:04:31;;;;;;;4.32;2.55;;;;;;;;;;5019015;28;20009;-83
2023/05/21 10:06:59;;;;;;;5.15;2.47;;;;;;;;;;4989774;28;20073;-83
2023/05/21 10:09:27;;;;;;;3.83;2.60;;;;;;;;;;5020074;28;20036;-84
2023/05/21 10:11:54;;;;;;;3.65;2.42;;;;;;;;;;5019770;28;20032;-83
2023/05/21 10:14:21;;;;;;;4.65;2.47;;;;;;;;;;5006365;28;20063;-84
2023/05/21 10:16:47;;;;;;;3.50;2.55;;;;;;;;;;5026788;28;20036;-84
2023/05/21 10:19:13;;;;;;;4.68;2.70;;;;;;;;;;5024757;28;20030;-85
2023/05/21 10:21:40;;;;;;;4.97;2.92;;;;;;;;;;5022998;28;20112;-85
2023/05/21 10:24:06;;;;;;;4.47;2.53;;;;;;;;;;5024842;28;20121;-84
2023/05/21 10:26:33;;;;;;;2.65;2.17;;;;;;;;;;5024664;28;20045;-84
2023/05/21 10:28:59;;;;;;;3.70;2.70;;;;;;;;;;5025070;28;20576;-85
2023/05/21 10:31:26;;;;;;;4.68;2.55;;;;;;;;;;5019428;28;20481;-85
2023/05/21 10:33:55;;;;;;;3.30;2.40;;;;;;;;;;5028413;28;20026;-85
2023/05/21 10:36:24;;;;;;;3.42;2.17;;;;;;;;;;5028936;28;20132;-84
2023/05/21 10:38:50;;;;;;;4.97;2.65;;;;;;;;;;5023146;28;20481;-86
2023/05/21 10:41:18;;;;;;;3.78;2.75;;;;;;;;;;5020589;28;20041;-85
2023/05/21 10:43:47;;;;;;;4.07;2.72;;;;;;;;;;5020020;28;20057;-86
2023/05/21 10:46:32;;;;;;;4.00;2.50;;;;;;;;;;5021379;28;20049;-85
2023/05/21 10:49:05;;;;;;;3.53;2.47;;;;;;;;;;5023130;28;20033;-84
2023/05/21 10:51:40;;;;;;;3.80;2.42;;;;;;;;;;5023116;28;20042;-85
2023/05/21 10:54:25;;;;;;;2.85;2.20;;;;;;;;;;5018862;28;20104;-85
2023/05/21 10:56:58;;;;;;;4.22;2.38;;;;;;;;;;5021924;28;20029;-84
2023/05/21 10:59:45;;;;;;;3.17;2.35;;;;;;;;;;5023882;28;20030;-85
2023/05/21 11:02:12;;;;;;;5.13;2.88;;;;;;;;;;5020739;28;20037;-85
2023/05/21 11:04:40;;;;;;;4.15;2.47;;;;;;;;;;5020487;28;20609;-85
2023/05/21 11:07:07;;;;;;;2.80;2.10;;;;;;;;;;5022197;28;20480;-85
2023/05/21 11:09:33;;;;;;;4.82;3.03;;;;;;;;;;5023487;28;20116;-85
2023/05/21 11:11:59;;;;;;;2.53;2.22;;;;;;;;;;5002663;28;20557;-85
2023/05/21 11:14:37;;;;;;;3.33;2.38;;;;;;;;;;5012872;28;20026;-85
2023/05/21 11:17:10;;;;;;;3.78;2.50;;;;;;;;;;5020483;28;20024;-84
2023/05/21 11:19:43;;;;;;;3.75;2.22;;;;;;;;;;5021053;28;20037;-84
2023/05/21 11:22:26;;;;;;;3.25;2.70;;;;;;;;;;5023621;28;20024;-84
2023/05/21 11:24:55;;;;;;;3.20;2.35;;;;;;;;;;5013291;28;20412;-84
2023/05/21 11:27:32;;;;;;;5.53;2.70;;;;;;;;;;5015879;28;20649;-85
2023/05/21 11:29:58;;;;;;;6.07;2.17;;;;;;;;;;5023034;28;20496;-85
2023/05/21 11:32:24;;;;;;;4.57;2.53;;;;;;;;;;5020197;28;20714;-86
2023/05/21 11:34:50;;;;;;;3.42;2.38;;;;;;;;;;5021875;28;20108;-86
2023/05/21 11:37:22;;;;;;;3.50;2.65;;;;;;;;;;5022857;28;20021;-85
2023/05/21 11:39:47;;;;;;;;;;;;;;;;;;5021483;28;20026;-85
2023/05/21 11:42:26;;;;;;;3.17;2.35;;;;;;;;;;5019954;28;20024;-85
2023/05/21 11:44:53;;;;;;;4.28;2.60;;;;;;;;;;5018652;28;20028;-85
2023/05/21 11:47:19;;;;;;;3.80;2.22;;;;;;;;;;5026085;28;20056;-85
2023/05/21 11:49:46;;;;;;;4.65;3.00;;;;;;;;;;5020911;28;20036;-85
2023/05/21 11:52:13;;;;;;;3.53;2.63;;;;;;;;;;5022893;28;20025;-85
2023/05/21 11:54:51;;;;;;;3.30;2.50;;;;;;;;;;5005888;28;20161;-86
2023/05/21 11:57:18;;;;;;;3.53;2.92;;;;;;;;;;5021181;28;20021;-85
2023/05/21 11:59:48;;;;;;;2.90;2.53;;;;;;;;;;5025056;28;20448;-85
2023/05/21 12:02:18;;;;;;;3.08;2.60;;;;;;;;;;5019333;28;20021;-85
2023/05/21 12:04:44;;;;;;;4.18;2.80;;;;;;;;;;5005549;28;20045;-85
2023/05/21 12:07:13;;;;;;;3.97;2.75;;;;;;;;;;5021909;28;20040;-84
2023/05/21 12:09:40;;;;;;;3.80;2.78;;;;;;;;;;5019885;28;20030;-84
2023/05/21 12:12:10;;;;;;;3.30;2.63;;;;;;;;;;5020686;28;20045;-85
2023/05/21 12:14:36;;;;;;;3.85;2.72;;;;;;;;;;5019494;28;20111;-85
2023/05/21 12:17:05;;;;;;;3.97;2.83;;;;;;;;;;5021768;28;20469;-84
2023/05/21 12:19:32;;;;;;;3.17;2.50;;;;;;;;;;5020571;28;20026;-83
2023/05/21 12:21:59;;;;;;;2.95;2.53;;;;;;;;;;5020004;28;20029;-84
2023/05/21 12:24:26;;;;;;;5.60;2.60;;;;;;;;;;5022101;28;20121;-85
2023/05/21 12:26:53;;;;;;;3.92;2.97;;;;;;;;;;5022660;28;20548;-84
2023/05/21 12:29:22;;;;;;;6.18;2.60;;;;;;;;;;5022559;28;20037;-84
2023/05/21 12:31:48;;;;;;;3.50;2.58;;;;;;;;;;5002433;28;20055;-84
2023/05/21 12:34:17;;;;;;;3.65;2.45;;;;;;;;;;5018782;28;20060;-85
2023/05/21 12:36:50;;;;;;;3.33;2.47;;;;;;;;;;5018401;28;20120;-85
2023/05/21 12:39:16;;;;;;;3.65;2.40;;;;;;;;;;5022139;28;20087;-86
2023/05/21 12:41:45;;;;;;;3.08;2.25;;;;;;;;;;5018679;28;20061;-86
2023/05/21 12:44:11;;;;;;;3.30;2.42;;;;;;;;;;5020265;28;20049;-84
2023/05/21 12:46:37;;;;;;;3.22;2.35;;;;;;;;;;5022775;28;20040;-85
2023/05/21 12:49:04;;;;;;;4.15;2.35;;;;;;;;;;5005916;28;20033;-84
2023/05/21 12:51:44;;;;;;;3.20;2.42;;;;;;;;;;5022599;28;20396;-85
2023/05/21 12:57:59;;;;;;;2.63;2.03;;;;;;;;;;4982124;28;20083;-85
2023/05/21 13:00:34;;;;;;;4.40;2.40;;;;;;;;;;5026321;28;20120;-82
2023/05/21 13:03:03;;;;;;;3.13;2.13;;;;;;;;;;5022399;28;20025;-85
2023/05/21 13:05:34;;;;;;;3.47;2.42;;;;;;;;;;5026918;28;20055;-86
2023/05/21 13:08:00;;;;;;;3.78;2.30;;;;;;;;;;5014185;28;20413;-85
2023/05/21 13:10:26;;;;;;;3.72;2.30;;;;;;;;;;5027012;28;20128;-84
2023/05/21 13:12:52;;;;;;;3.08;2.03;;;;;;;;;;5017828;28;20480;-85
2023/05/21 13:15:38;;;;;;;2.95;2.15;;;;;;;;;;5023247;28;20925;-86
2023/05/21 13:18:04;;;;;;;4.70;2.30;;;;;;;;;;5023215;28;20121;-84
2023/05/21 13:20:30;;;;;;;2.42;2.15;;;;;;;;;;5023718;28;20020;-84
2023/05/21 13:22:57;;;;;;;2.78;2.33;;;;;;;;;;5025549;28;20099;-85
2023/05/21 13:25:26;;;;;;;2.45;1.95;;;;;;;;;;5024021;28;20025;-85
2023/05/21 13:27:52;;;;;;;2.85;1.98;;;;;;;;;;5025446;28;20029;-86
2023/05/21 13:30:18;;;;;;;2.88;1.95;;;;;;;;;;5020872;28;20431;-85
2023/05/21 13:32:44;;;;;;;2.15;1.90;;;;;;;;;;5022425;28;20499;-85
2023/05/21 13:35:10;;;;;;;3.05;2.25;;;;;;;;;;5027975;28;20140;-84
2023/05/21 13:37:38;;;;;;;4.00;2.38;;;;;;;;;;5013585;28;20033;-84
2023/05/21 13:40:07;;;;;;;2.33;2.13;;;;;;;;;;5023094;28;20037;-85
2023/05/21 13:42:34;;;;;;;2.65;1.98;;;;;;;;;;5006000;28;20080;-85
2023/05/21 13:45:00;;;;;;;4.20;2.22;;;;;;;;;;5018163;28;20029;-85
2023/05/21 13:47:26;;;;;;;2.83;1.88;;;;;;;;;;5024146;28;20032;-85
2023/05/21 13:49:52;;;;;;;2.88;2.03;;;;;;;;;;5025692;28;20365;-85
2023/05/21 13:52:19;;;;;;;2.70;1.90;;;;;;;;;;5018094;28;20025;-85
2023/05/21 13:54:44;;;;;;;3.80;2.33;;;;;;;;;;5022781;28;20072;-85
2023/05/21 13:57:10;;;;;;;3.22;2.13;;;;;;;;;;5026946;28;20461;-84
2023/05/21 13:59:36;;;;;;;2.92;2.10;;;;;;;;;;5024557;28;20021;-85
2023/05/21 14:02:03;;;;;;;3.00;1.92;;;;;;;;;;5023777;28;20017;-85
2023/05/21 14:04:29;;;;;;;2.80;2.10;;;;;;;;;;5019039;28;20602;-85
2023/05/21 14:06:55;;;;;;;4.13;2.35;;;;;;;;;;5023409;28;20056;-84
2023/05/21 14:09:22;;;;;;;3.70;2.20;;;;;;;;;;5024542;28;20498;-85
2023/05/21 14:11:48;;;;;;;3.08;2.00;;;;;;;;;;5022251;28;20127;-85
2023/05/21 14:14:17;;;;;;;3.15;2.35;;;;;;;;;;5021852;28;20032;-84
2023/05/21 14:16:45;;;;;;;2.17;1.70;;;;;;;;;;5021424;28;20423;-85
2023/05/21 14:19:11;;;;;;;3.33;2.00;;;;;;;;;;5018712;28;20112;-85
2023/05/21 14:21:37;;;;;;;2.95;2.20;;;;;;;;;;5033255;28;20116;-85
2023/05/21 14:24:03;;;;;;;2.95;2.25;;;;;;;;;;5022735;28;20033;-85
2023/05/21 14:26:29;;;;;;;2.70;2.20;;;;;;;;;;5023242;28;20046;-85
2023/05/21 14:28:55;;;;;;;2.75;2.10;;;;;;;;;;5023901;28;20531;-85
2023/05/21 14:31:22;;;;;;;2.35;1.95;;;;;;;;;;5027192;28;20037;-85
2023/05/21 14:33:48;;;;;;;3.08;2.00;;;;;;;;;;5021463;28;20108;-86
2023/05/21 14:36:14;;;;;;;2.28;1.70;;;;;;;;;;5021685;28;20117;-84
2023/05/21 14:38:40;;;;;;;2.90;2.30;;;;;;;;;;5022002;28;20033;-85
2023/05/21 14:41:07;;;;;;;2.38;1.77;;;;;;;;;;5027874;28;20029;-84
2023/05/21 14:43:33;;;;;;;4.07;2.22;;;;;;;;;;5024865;28;20049;-84
2023/05/21 14:45:59;;;;;;;3.50;2.20;;;;;;;;;;5021151;28;20155;-84